Central Park, Illinois
Current Conditions -  °F | °C
As of 7:15 PM on Thursday 25 Dec 2014 (Local Time) from KDNV Reporting Station
Clear Clear  
Wind Chill: 29°   Ceiling: Unl
Heat Index: 36°   Visibility: 10mi
Dew Point: 32°   Wind: 8mph
Humidity: 87%   Direction: 150°SSE
Pressure: 30.03"   Gusts: NA
Location:  40.1365°N, 87.6307°W
Report Text: KDNV 260115Z AUTO 15007KT 10SM CLR 02/00 A3003 RMK AO2 T00200000
Loading
Personal Weather Stations






























Interactive Weather Map New forecast layout! Learn more

10-Day Weather Forecast

Advertisements
Track Severe Weather on mobile